sensor_id;sensor_type;location;lat;lon;timestamp;temperature;humidity
17405;DHT22;8820;54.604;18.226;2023-04-08T00:00:29;10.60;98.10
17405;DHT22;8820;54.604;18.226;2023-04-08T00:02:57;10.50;98.40
17405;DHT22;8820;54.604;18.226;2023-04-08T00:05:26;10.50;98.90
17405;DHT22;8820;54.604;18.226;2023-04-08T00:07:56;10.50;99.20
17405;DHT22;8820;54.604;18.226;2023-04-08T00:10:24;10.40;99.60
17405;DHT22;8820;54.604;18.226;2023-04-08T00:12:53;10.30;99.90
17405;DHT22;8820;54.604;18.226;2023-04-08T00:15:22;10.30;99.90
17405;DHT22;8820;54.604;18.226;2023-04-08T00:17:50;10.40;99.90
17405;DHT22;8820;54.604;18.226;2023-04-08T00:20:21;10.30;99.90
17405;DHT22;8820;54.604;18.226;2023-04-08T00:22:49;10.40;99.90
17405;DHT22;8820;54.604;18.226;2023-04-08T00:25:19;10.40;99.90
17405;DHT22;8820;54.604;18.226;2023-04-08T00:27:50;10.50;99.90
17405;DHT22;8820;54.604;18.226;2023-04-08T00:30:19;10.50;99.90
17405;DHT22;8820;54.604;18.226;2023-04-08T00:32:48;10.50;99.90
17405;DHT22;8820;54.604;18.226;2023-04-08T00:35:17;10.50;99.90
17405;DHT22;8820;54.604;18.226;2023-04-08T00:37:45;10.50;99.90
17405;DHT22;8820;54.604;18.226;2023-04-08T00:40:14;10.50;99.90
17405;DHT22;8820;54.604;18.226;2023-04-08T00:42:44;10.50;99.90
17405;DHT22;8820;54.604;18.226;2023-04-08T00:45:12;10.50;99.90
17405;DHT22;8820;54.604;18.226;2023-04-08T00:47:41;10.50;99.90
17405;DHT22;8820;54.604;18.226;2023-04-08T00:50:10;10.50;99.90
17405;DHT22;8820;54.604;18.226;2023-04-08T00:52:38;10.50;99.90
17405;DHT22;8820;54.604;18.226;2023-04-08T00:55:07;10.50;99.90
17405;DHT22;8820;54.604;18.226;2023-04-08T00:57:35;10.50;99.90
17405;DHT22;8820;54.604;18.226;2023-04-08T01:00:06;10.60;99.90
17405;DHT22;8820;54.604;18.226;2023-04-08T01:02:40;10.50;99.90
17405;DHT22;8820;54.604;18.226;2023-04-08T01:05:13;10.40;99.90
17405;DHT22;8820;54.604;18.226;2023-04-08T01:07:45;10.30;99.90
17405;DHT22;8820;54.604;18.226;2023-04-08T01:10:17;10.40;99.90
17405;DHT22;8820;54.604;18.226;2023-04-08T01:12:51;10.40;99.90
17405;DHT22;8820;54.604;18.226;2023-04-08T01:15:23;10.40;99.90
17405;DHT22;8820;54.604;18.226;2023-04-08T01:17:54;10.30;99.90
17405;DHT22;8820;54.604;18.226;2023-04-08T01:20:25;10.40;99.90
17405;DHT22;8820;54.604;18.226;2023-04-08T01:23:05;10.40;99.90
17405;DHT22;8820;54.604;18.226;2023-04-08T01:25:37;10.40;99.90
17405;DHT22;8820;54.604;18.226;2023-04-08T01:28:10;10.50;99.90
17405;DHT22;8820;54.604;18.226;2023-04-08T01:30:40;10.50;99.90
17405;DHT22;8820;54.604;18.226;2023-04-08T01:33:10;10.50;99.90
17405;DHT22;8820;54.604;18.226;2023-04-08T01:35:39;10.50;99.90
17405;DHT22;8820;54.604;18.226;2023-04-08T01:38:10;10.50;99.90
17405;DHT22;8820;54.604;18.226;2023-04-08T01:40:41;10.50;99.90
17405;DHT22;8820;54.604;18.226;2023-04-08T01:43:13;10.50;99.90
17405;DHT22;8820;54.604;18.226;2023-04-08T01:45:43;10.50;99.90
17405;DHT22;8820;54.604;18.226;2023-04-08T01:48:13;10.50;99.90
17405;DHT22;8820;54.604;18.226;2023-04-08T01:50:44;10.50;99.90
17405;DHT22;8820;54.604;18.226;2023-04-08T01:53:13;10.40;99.90
17405;DHT22;8820;54.604;18.226;2023-04-08T01:55:44;10.30;99.90
17405;DHT22;8820;54.604;18.226;2023-04-08T01:58:18;10.30;99.90
17405;DHT22;8820;54.604;18.226;2023-04-08T02:00:48;10.30;99.90
17405;DHT22;8820;54.604;18.226;2023-04-08T02:03:17;10.30;99.90
17405;DHT22;8820;54.604;18.226;2023-04-08T02:05:48;10.30;99.90
17405;DHT22;8820;54.604;18.226;2023-04-08T02:08:16;10.30;99.90
17405;DHT22;8820;54.604;18.226;2023-04-08T02:10:45;10.40;99.90
17405;DHT22;8820;54.604;18.226;2023-04-08T02:13:14;10.40;99.90
17405;DHT22;8820;54.604;18.226;2023-04-08T02:15:54;10.50;99.90
17405;DHT22;8820;54.604;18.226;2023-04-08T02:18:25;10.50;99.90
17405;DHT22;8820;54.604;18.226;2023-04-08T02:20:57;10.50;99.90
17405;DHT22;8820;54.604;18.226;2023-04-08T02:23:32;10.50;99.90
17405;DHT22;8820;54.604;18.226;2023-04-08T02:26:03;10.50;99.90
17405;DHT22;8820;54.604;18.226;2023-04-08T02:28:34;10.50;99.90
17405;DHT22;8820;54.604;18.226;2023-04-08T02:31:05;10.50;99.90
17405;DHT22;8820;54.604;18.226;2023-04-08T02:33:36;10.50;99.90
17405;DHT22;8820;54.604;18.226;2023-04-08T02:36:07;10.50;99.90
17405;DHT22;8820;54.604;18.226;2023-04-08T02:38:35;10.50;99.90
17405;DHT22;8820;54.604;18.226;2023-04-08T02:41:04;10.50;99.90
17405;DHT22;8820;54.604;18.226;2023-04-08T02:43:34;10.50;99.90
17405;DHT22;8820;54.604;18.226;2023-04-08T02:46:05;10.50;99.90
17405;DHT22;8820;54.604;18.226;2023-04-08T02:48:35;10.50;99.90
17405;DHT22;8820;54.604;18.226;2023-04-08T02:51:04;10.50;99.90
17405;DHT22;8820;54.604;18.226;2023-04-08T02:53:32;10.50;99.90
17405;DHT22;8820;54.604;18.226;2023-04-08T02:56:01;10.40;99.90
17405;DHT22;8820;54.604;18.226;2023-04-08T02:58:29;10.40;99.90
17405;DHT22;8820;54.604;18.226;2023-04-08T03:00:59;10.30;99.90
17405;DHT22;8820;54.604;18.226;2023-04-08T03:03:28;10.20;99.90
17405;DHT22;8820;54.604;18.226;2023-04-08T03:05:57;10.30;99.90
17405;DHT22;8820;54.604;18.226;2023-04-08T03:08:26;10.30;99.90
17405;DHT22;8820;54.604;18.226;2023-04-08T03:10:54;10.40;99.90
17405;DHT22;8820;54.604;18.226;2023-04-08T03:13:23;10.50;99.90
17405;DHT22;8820;54.604;18.226;2023-04-08T03:15:51;10.50;99.90
17405;DHT22;8820;54.604;18.226;2023-04-08T03:18:21;10.50;99.90
17405;DHT22;8820;54.604;18.226;2023-04-08T03:20:49;10.50;99.90
17405;DHT22;8820;54.604;18.226;2023-04-08T03:23:18;10.50;99.90
17405;DHT22;8820;54.604;18.226;2023-04-08T03:25:46;10.50;99.90
17405;DHT22;8820;54.604;18.226;2023-04-08T03:28:15;10.50;99.90
17405;DHT22;8820;54.604;18.226;2023-04-08T03:30:43;10.50;99.90
17405;DHT22;8820;54.604;18.226;2023-04-08T03:33:12;10.50;99.90
17405;DHT22;8820;54.604;18.226;2023-04-08T03:35:42;10.40;99.90
17405;DHT22;8820;54.604;18.226;2023-04-08T03:38:10;10.40;99.90
17405;DHT22;8820;54.604;18.226;2023-04-08T03:40:39;10.30;99.90
17405;DHT22;8820;54.604;18.226;2023-04-08T03:43:07;10.30;99.90
17405;DHT22;8820;54.604;18.226;2023-04-08T03:45:37;10.30;99.90
17405;DHT22;8820;54.604;18.226;2023-04-08T03:48:06;10.30;99.90
17405;DHT22;8820;54.604;18.226;2023-04-08T03:50:35;10.30;99.90
17405;DHT22;8820;54.604;18.226;2023-04-08T03:53:04;10.30;99.90
17405;DHT22;8820;54.604;18.226;2023-04-08T03:55:33;10.30;99.90
17405;DHT22;8820;54.604;18.226;2023-04-08T03:58:01;10.40;99.90
17405;DHT22;8820;54.604;18.226;2023-04-08T04:00:30;10.40;99.90
17405;DHT22;8820;54.604;18.226;2023-04-08T04:02:58;10.50;99.90
17405;DHT22;8820;54.604;18.226;2023-04-08T04:05:27;10.50;99.90
17405;DHT22;8820;54.604;18.226;2023-04-08T04:07:56;10.40;99.90
17405;DHT22;8820;54.604;18.226;2023-04-08T04:10:26;10.40;99.90
17405;DHT22;8820;54.604;18.226;2023-04-08T04:12:54;10.40;99.90
17405;DHT22;8820;54.604;18.226;2023-04-08T04:15:22;10.40;99.90
17405;DHT22;8820;54.604;18.226;2023-04-08T04:17:51;10.50;99.90
17405;DHT22;8820;54.604;18.226;2023-04-08T04:20:19;10.40;99.90
17405;DHT22;8820;54.604;18.226;2023-04-08T04:22:48;10.40;99.90
17405;DHT22;8820;54.604;18.226;2023-04-08T04:25:17;10.50;99.90
17405;DHT22;8820;54.604;18.226;2023-04-08T04:27:46;10.40;99.90
17405;DHT22;8820;54.604;18.226;2023-04-08T04:30:15;10.50;99.90
17405;DHT22;8820;54.604;18.226;2023-04-08T04:32:45;10.40;99.90
17405;DHT22;8820;54.604;18.226;2023-04-08T04:35:14;10.40;99.90
17405;DHT22;8820;54.604;18.226;2023-04-08T04:37:42;10.30;99.90
17405;DHT22;8820;54.604;18.226;2023-04-08T04:40:11;10.30;99.90
17405;DHT22;8820;54.604;18.226;2023-04-08T04:42:39;10.30;99.90
17405;DHT22;8820;54.604;18.226;2023-04-08T04:45:10;10.30;99.90
17405;DHT22;8820;54.604;18.226;2023-04-08T04:47:38;10.30;99.90
17405;DHT22;8820;54.604;18.226;2023-04-08T04:50:07;10.40;99.90
17405;DHT22;8820;54.604;18.226;2023-04-08T04:52:36;10.40;99.90
17405;DHT22;8820;54.604;18.226;2023-04-08T04:55:05;10.50;99.90
17405;DHT22;8820;54.604;18.226;2023-04-08T04:57:34;10.50;99.90
17405;DHT22;8820;54.604;18.226;2023-04-08T05:00:03;10.50;99.90
17405;DHT22;8820;54.604;18.226;2023-04-08T05:02:33;10.50;99.90
17405;DHT22;8820;54.604;18.226;2023-04-08T05:05:02;10.60;99.90
17405;DHT22;8820;54.604;18.226;2023-04-08T05:07:30;10.60;99.90
17405;DHT22;8820;54.604;18.226;2023-04-08T05:09:59;10.50;99.90
17405;DHT22;8820;54.604;18.226;2023-04-08T05:12:27;10.50;99.90
17405;DHT22;8820;54.604;18.226;2023-04-08T05:14:57;10.60;99.90
17405;DHT22;8820;54.604;18.226;2023-04-08T05:17:26;10.60;99.90
17405;DHT22;8820;54.604;18.226;2023-04-08T05:19:56;10.60;99.90
17405;DHT22;8820;54.604;18.226;2023-04-08T05:22:24;10.60;99.90
17405;DHT22;8820;54.604;18.226;2023-04-08T05:24:52;10.60;99.90
17405;DHT22;8820;54.604;18.226;2023-04-08T05:27:21;10.60;99.90
17405;DHT22;8820;54.604;18.226;2023-04-08T05:29:49;10.60;99.90
17405;DHT22;8820;54.604;18.226;2023-04-08T05:32:18;10.60;99.90
17405;DHT22;8820;54.604;18.226;2023-04-08T05:34:47;10.60;99.90
17405;DHT22;8820;54.604;18.226;2023-04-08T05:37:16;10.60;99.90
17405;DHT22;8820;54.604;18.226;2023-04-08T05:39:45;10.70;99.90
17405;DHT22;8820;54.604;18.226;2023-04-08T05:42:13;10.70;99.90
17405;DHT22;8820;54.604;18.226;2023-04-08T05:44:42;10.70;99.90
17405;DHT22;8820;54.604;18.226;2023-04-08T05:47:10;10.70;99.90
17405;DHT22;8820;54.604;18.226;2023-04-08T05:49:40;10.70;99.90
17405;DHT22;8820;54.604;18.226;2023-04-08T05:52:09;10.70;99.90
17405;DHT22;8820;54.604;18.226;2023-04-08T05:54:41;10.80;99.90
17405;DHT22;8820;54.604;18.226;2023-04-08T05:57:10;10.80;99.90
17405;DHT22;8820;54.604;18.226;2023-04-08T05:59:39;10.80;99.90
17405;DHT22;8820;54.604;18.226;2023-04-08T06:02:07;10.80;99.90
17405;DHT22;8820;54.604;18.226;2023-04-08T06:04:36;10.80;99.90
17405;DHT22;8820;54.604;18.226;2023-04-08T06:07:04;10.80;99.90
17405;DHT22;8820;54.604;18.226;2023-04-08T06:09:34;10.90;99.90
17405;DHT22;8820;54.604;18.226;2023-04-08T06:12:05;10.80;99.90
17405;DHT22;8820;54.604;18.226;2023-04-08T06:14:34;10.90;99.90
17405;DHT22;8820;54.604;18.226;2023-04-08T06:17:03;10.90;99.90
17405;DHT22;8820;54.604;18.226;2023-04-08T06:19:31;11.00;99.90
17405;DHT22;8820;54.604;18.226;2023-04-08T06:22:00;11.00;99.90
17405;DHT22;8820;54.604;18.226;2023-04-08T06:24:28;11.00;99.90
17405;DHT22;8820;54.604;18.226;2023-04-08T06:26:57;11.00;99.90
17405;DHT22;8820;54.604;18.226;2023-04-08T06:29:26;11.00;99.90
17405;DHT22;8820;54.604;18.226;2023-04-08T06:31:55;11.10;99.90
17405;DHT22;8820;54.604;18.226;2023-04-08T06:34:24;11.10;99.90
17405;DHT22;8820;54.604;18.226;2023-04-08T06:36:52;11.10;99.90
17405;DHT22;8820;54.604;18.226;2023-04-08T06:39:21;11.10;99.90
17405;DHT22;8820;54.604;18.226;2023-04-08T06:41:50;11.20;99.90
17405;DHT22;8820;54.604;18.226;2023-04-08T06:44:33;11.20;99.90
17405;DHT22;8820;54.604;18.226;2023-04-08T06:47:01;11.20;99.90
17405;DHT22;8820;54.604;18.226;2023-04-08T06:49:30;11.20;99.90
17405;DHT22;8820;54.604;18.226;2023-04-08T06:51:58;11.30;99.90
17405;DHT22;8820;54.604;18.226;2023-04-08T06:54:26;11.30;99.90
17405;DHT22;8820;54.604;18.226;2023-04-08T06:56:55;11.40;99.90
17405;DHT22;8820;54.604;18.226;2023-04-08T06:59:23;11.40;99.90
17405;DHT22;8820;54.604;18.226;2023-04-08T07:01:53;11.50;99.90
17405;DHT22;8820;54.604;18.226;2023-04-08T07:04:22;11.50;99.90
17405;DHT22;8820;54.604;18.226;2023-04-08T07:06:50;11.50;99.90
17405;DHT22;8820;54.604;18.226;2023-04-08T07:09:19;11.60;99.90
17405;DHT22;8820;54.604;18.226;2023-04-08T07:11:47;11.60;99.90
17405;DHT22;8820;54.604;18.226;2023-04-08T07:14:16;11.70;99.90
17405;DHT22;8820;54.604;18.226;2023-04-08T07:16:45;11.70;99.90
17405;DHT22;8820;54.604;18.226;2023-04-08T07:19:15;11.70;99.90
17405;DHT22;8820;54.604;18.226;2023-04-08T07:21:43;11.80;99.90
17405;DHT22;8820;54.604;18.226;2023-04-08T07:24:12;11.80;99.90
17405;DHT22;8820;54.604;18.226;2023-04-08T07:26:42;11.90;99.90
17405;DHT22;8820;54.604;18.226;2023-04-08T07:29:11;11.90;99.90
17405;DHT22;8820;54.604;18.226;2023-04-08T07:31:39;12.00;99.90
17405;DHT22;8820;54.604;18.226;2023-04-08T07:34:08;12.00;99.90
17405;DHT22;8820;54.604;18.226;2023-04-08T07:36:37;12.00;99.90
17405;DHT22;8820;54.604;18.226;2023-04-08T07:39:06;12.10;99.90
17405;DHT22;8820;54.604;18.226;2023-04-08T07:41:35;12.10;99.90
17405;DHT22;8820;54.604;18.226;2023-04-08T07:44:03;12.20;99.90
17405;DHT22;8820;54.604;18.226;2023-04-08T07:46:35;12.20;99.90
17405;DHT22;8820;54.604;18.226;2023-04-08T07:49:04;12.20;99.90
17405;DHT22;8820;54.604;18.226;2023-04-08T07:51:32;12.20;99.90
17405;DHT22;8820;54.604;18.226;2023-04-08T07:54:02;12.30;99.90
17405;DHT22;8820;54.604;18.226;2023-04-08T07:56:31;12.30;99.90
17405;DHT22;8820;54.604;18.226;2023-04-08T07:58:59;12.40;99.90
17405;DHT22;8820;54.604;18.226;2023-04-08T08:01:28;12.40;99.90
17405;DHT22;8820;54.604;18.226;2023-04-08T08:03:57;12.40;99.90
17405;DHT22;8820;54.604;18.226;2023-04-08T08:06:26;12.40;99.90
17405;DHT22;8820;54.604;18.226;2023-04-08T08:08:54;12.40;99.90
17405;DHT22;8820;54.604;18.226;2023-04-08T08:11:24;12.50;99.90
17405;DHT22;8820;54.604;18.226;2023-04-08T08:13:54;12.50;99.90
17405;DHT22;8820;54.604;18.226;2023-04-08T08:16:22;12.50;99.90
17405;DHT22;8820;54.604;18.226;2023-04-08T08:18:53;12.50;99.90
17405;DHT22;8820;54.604;18.226;2023-04-08T08:21:21;12.50;99.90
17405;DHT22;8820;54.604;18.226;2023-04-08T08:23:51;12.60;99.90
17405;DHT22;8820;54.604;18.226;2023-04-08T08:26:20;12.60;99.90
17405;DHT22;8820;54.604;18.226;2023-04-08T08:28:50;12.60;99.90
17405;DHT22;8820;54.604;18.226;2023-04-08T08:31:19;12.60;99.90
17405;DHT22;8820;54.604;18.226;2023-04-08T08:33:47;12.60;99.90
17405;DHT22;8820;54.604;18.226;2023-04-08T08:36:16;12.70;99.90
17405;DHT22;8820;54.604;18.226;2023-04-08T08:38:44;12.70;99.90
17405;DHT22;8820;54.604;18.226;2023-04-08T08:41:13;12.70;99.90
17405;DHT22;8820;54.604;18.226;2023-04-08T08:43:41;12.70;99.90
17405;DHT22;8820;54.604;18.226;2023-04-08T08:46:15;12.80;99.90
17405;DHT22;8820;54.604;18.226;2023-04-08T08:48:45;12.80;99.90
17405;DHT22;8820;54.604;18.226;2023-04-08T08:51:13;12.90;99.90
17405;DHT22;8820;54.604;18.226;2023-04-08T08:53:42;12.90;99.90
17405;DHT22;8820;54.604;18.226;2023-04-08T08:56:11;12.90;99.90
17405;DHT22;8820;54.604;18.226;2023-04-08T08:58:44;13.00;99.90
17405;DHT22;8820;54.604;18.226;2023-04-08T09:01:43;13.10;99.90
17405;DHT22;8820;54.604;18.226;2023-04-08T09:04:13;13.00;99.90
17405;DHT22;8820;54.604;18.226;2023-04-08T09:06:43;13.10;99.90
17405;DHT22;8820;54.604;18.226;2023-04-08T09:09:13;13.10;99.90
17405;DHT22;8820;54.604;18.226;2023-04-08T09:11:42;13.10;99.90
17405;DHT22;8820;54.604;18.226;2023-04-08T09:14:19;13.10;99.90
17405;DHT22;8820;54.604;18.226;2023-04-08T09:16:50;13.10;99.90
17405;DHT22;8820;54.604;18.226;2023-04-08T09:19:19;13.10;99.90
17405;DHT22;8820;54.604;18.226;2023-04-08T09:22:05;13.20;99.90
17405;DHT22;8820;54.604;18.226;2023-04-08T09:24:34;13.30;99.90
17405;DHT22;8820;54.604;18.226;2023-04-08T09:27:04;13.30;99.90
17405;DHT22;8820;54.604;18.226;2023-04-08T09:29:32;13.30;99.90
17405;DHT22;8820;54.604;18.226;2023-04-08T09:32:05;13.30;99.90
17405;DHT22;8820;54.604;18.226;2023-04-08T09:34:34;13.30;99.90
17405;DHT22;8820;54.604;18.226;2023-04-08T09:37:02;13.30;99.90
17405;DHT22;8820;54.604;18.226;2023-04-08T09:39:31;13.30;99.90
17405;DHT22;8820;54.604;18.226;2023-04-08T09:41:59;13.30;99.90
17405;DHT22;8820;54.604;18.226;2023-04-08T09:44:34;13.30;99.90
17405;DHT22;8820;54.604;18.226;2023-04-08T09:47:11;13.30;99.90
17405;DHT22;8820;54.604;18.226;2023-04-08T09:49:48;13.30;99.90
17405;DHT22;8820;54.604;18.226;2023-04-08T09:52:20;13.30;99.90
17405;DHT22;8820;54.604;18.226;2023-04-08T09:54:54;13.30;99.90
17405;DHT22;8820;54.604;18.226;2023-04-08T09:57:30;13.30;99.90
17405;DHT22;8820;54.604;18.226;2023-04-08T10:00:04;13.40;99.90
17405;DHT22;8820;54.604;18.226;2023-04-08T10:02:51;13.40;99.90
17405;DHT22;8820;54.604;18.226;2023-04-08T10:05:23;13.50;99.90
17405;DHT22;8820;54.604;18.226;2023-04-08T10:07:52;13.50;99.90
17405;DHT22;8820;54.604;18.226;2023-04-08T10:10:23;13.50;99.90
17405;DHT22;8820;54.604;18.226;2023-04-08T10:12:53;13.60;99.90
17405;DHT22;8820;54.604;18.226;2023-04-08T10:15:26;13.70;99.90
17405;DHT22;8820;54.604;18.226;2023-04-08T10:21:03;13.70;99.90
17405;DHT22;8820;54.604;18.226;2023-04-08T10:23:54;13.80;99.90
17405;DHT22;8820;54.604;18.226;2023-04-08T10:26:30;13.90;99.90
17405;DHT22;8820;54.604;18.226;2023-04-08T10:29:29;13.90;99.90
17405;DHT22;8820;54.604;18.226;2023-04-08T10:31:57;14.00;99.90
17405;DHT22;8820;54.604;18.226;2023-04-08T10:34:28;14.00;99.90
17405;DHT22;8820;54.604;18.226;2023-04-08T10:36:57;14.00;99.90
17405;DHT22;8820;54.604;18.226;2023-04-08T10:39:29;14.00;99.90
17405;DHT22;8820;54.604;18.226;2023-04-08T10:42:00;14.10;99.90
17405;DHT22;8820;54.604;18.226;2023-04-08T10:44:30;14.10;99.90
17405;DHT22;8820;54.604;18.226;2023-04-08T10:46:58;14.00;99.40
17405;DHT22;8820;54.604;18.226;2023-04-08T10:49:33;14.00;99.80
17405;DHT22;8820;54.604;18.226;2023-04-08T10:52:06;14.00;99.90
17405;DHT22;8820;54.604;18.226;2023-04-08T10:54:36;14.00;99.90
17405;DHT22;8820;54.604;18.226;2023-04-08T10:57:05;14.00;99.90
17405;DHT22;8820;54.604;18.226;2023-04-08T10:59:34;14.10;99.90
17405;DHT22;8820;54.604;18.226;2023-04-08T11:02:02;14.10;99.90
17405;DHT22;8820;54.604;18.226;2023-04-08T11:04:32;14.20;99.90
17405;DHT22;8820;54.604;18.226;2023-04-08T11:07:05;14.30;99.90
17405;DHT22;8820;54.604;18.226;2023-04-08T11:09:34;14.40;99.90
17405;DHT22;8820;54.604;18.226;2023-04-08T11:12:03;14.50;99.90
17405;DHT22;8820;54.604;18.226;2023-04-08T11:14:32;14.60;99.90
17405;DHT22;8820;54.604;18.226;2023-04-08T11:17:00;14.70;99.90
17405;DHT22;8820;54.604;18.226;2023-04-08T11:19:34;14.80;99.90
17405;DHT22;8820;54.604;18.226;2023-04-08T11:22:06;15.00;99.90
17405;DHT22;8820;54.604;18.226;2023-04-08T11:24:35;15.30;99.90
17405;DHT22;8820;54.604;18.226;2023-04-08T11:27:04;15.60;99.90
17405;DHT22;8820;54.604;18.226;2023-04-08T11:29:33;16.10;99.90
17405;DHT22;8820;54.604;18.226;2023-04-08T11:32:02;16.40;98.40
17405;DHT22;8820;54.604;18.226;2023-04-08T11:34:30;16.50;97.20
17405;DHT22;8820;54.604;18.226;2023-04-08T11:37:00;16.80;99.90
17405;DHT22;8820;54.604;18.226;2023-04-08T11:39:29;17.00;95.60
17405;DHT22;8820;54.604;18.226;2023-04-08T11:41:58;17.00;92.70
17405;DHT22;8820;54.604;18.226;2023-04-08T11:44:30;17.00;91.40
17405;DHT22;8820;54.604;18.226;2023-04-08T11:46:59;16.90;90.00
17405;DHT22;8820;54.604;18.226;2023-04-08T11:49:43;16.90;91.10
17405;DHT22;8820;54.604;18.226;2023-04-08T11:52:13;16.80;88.50
17405;DHT22;8820;54.604;18.226;2023-04-08T11:54:42;16.70;89.60
17405;DHT22;8820;54.604;18.226;2023-04-08T11:57:10;16.60;90.30
17405;DHT22;8820;54.604;18.226;2023-04-08T11:59:41;16.60;90.70
17405;DHT22;8820;54.604;18.226;2023-04-08T12:02:10;16.60;91.00
17405;DHT22;8820;54.604;18.226;2023-04-08T12:04:38;16.60;91.00
17405;DHT22;8820;54.604;18.226;2023-04-08T12:07:07;16.70;91.20
17405;DHT22;8820;54.604;18.226;2023-04-08T12:09:38;16.70;90.70
17405;DHT22;8820;54.604;18.226;2023-04-08T12:12:06;16.70;91.40
17405;DHT22;8820;54.604;18.226;2023-04-08T12:14:35;16.70;91.40
17405;DHT22;8820;54.604;18.226;2023-04-08T12:17:03;16.70;92.00
17405;DHT22;8820;54.604;18.226;2023-04-08T12:19:32;16.90;93.90
17405;DHT22;8820;54.604;18.226;2023-04-08T12:22:02;17.10;92.80
17405;DHT22;8820;54.604;18.226;2023-04-08T12:24:30;17.30;93.20
17405;DHT22;8820;54.604;18.226;2023-04-08T12:27:00;17.60;94.80
17405;DHT22;8820;54.604;18.226;2023-04-08T12:29:30;18.00;95.90
17405;DHT22;8820;54.604;18.226;2023-04-08T12:31:59;18.30;92.20
17405;DHT22;8820;54.604;18.226;2023-04-08T12:34:28;18.30;84.40
17405;DHT22;8820;54.604;18.226;2023-04-08T12:36:57;18.20;81.40
17405;DHT22;8820;54.604;18.226;2023-04-08T12:39:25;18.10;80.60
17405;DHT22;8820;54.604;18.226;2023-04-08T12:41:54;18.10;79.90
17405;DHT22;8820;54.604;18.226;2023-04-08T12:44:24;18.10;80.50
17405;DHT22;8820;54.604;18.226;2023-04-08T12:46:53;18.00;80.40
17405;DHT22;8820;54.604;18.226;2023-04-08T12:49:21;18.00;79.30
17405;DHT22;8820;54.604;18.226;2023-04-08T12:51:50;17.90;77.70
17405;DHT22;8820;54.604;18.226;2023-04-08T12:54:19;17.90;77.60
17405;DHT22;8820;54.604;18.226;2023-04-08T12:56:48;17.90;77.90
17405;DHT22;8820;54.604;18.226;2023-04-08T12:59:16;17.80;77.50
17405;DHT22;8820;54.604;18.226;2023-04-08T13:01:46;17.80;77.30
17405;DHT22;8820;54.604;18.226;2023-04-08T13:04:15;17.90;77.80
17405;DHT22;8820;54.604;18.226;2023-04-08T13:06:44;17.90;77.80
17405;DHT22;8820;54.604;18.226;2023-04-08T13:09:12;18.00;78.50
17405;DHT22;8820;54.604;18.226;2023-04-08T13:11:41;18.00;78.30
17405;DHT22;8820;54.604;18.226;2023-04-08T13:14:10;18.00;78.00
17405;DHT22;8820;54.604;18.226;2023-04-08T13:16:43;18.00;77.60
17405;DHT22;8820;54.604;18.226;2023-04-08T13:19:13;18.00;76.90
17405;DHT22;8820;54.604;18.226;2023-04-08T13:21:42;18.10;78.50
17405;DHT22;8820;54.604;18.226;2023-04-08T13:24:12;18.00;75.10
17405;DHT22;8820;54.604;18.226;2023-04-08T13:26:40;18.00;75.60
17405;DHT22;8820;54.604;18.226;2023-04-08T13:29:09;18.00;74.60
17405;DHT22;8820;54.604;18.226;2023-04-08T13:31:37;18.00;74.30
17405;DHT22;8820;54.604;18.226;2023-04-08T13:34:06;17.90;74.80
17405;DHT22;8820;54.604;18.226;2023-04-08T13:36:35;17.90;74.30
17405;DHT22;8820;54.604;18.226;2023-04-08T13:39:04;17.90;74.70
17405;DHT22;8820;54.604;18.226;2023-04-08T13:41:32;17.80;74.60
17405;DHT22;8820;54.604;18.226;2023-04-08T13:44:01;17.80;73.80
17405;DHT22;8820;54.604;18.226;2023-04-08T13:46:30;17.80;74.20
17405;DHT22;8820;54.604;18.226;2023-04-08T13:48:58;17.70;73.60
17405;DHT22;8820;54.604;18.226;2023-04-08T13:51:27;17.70;73.80
17405;DHT22;8820;54.604;18.226;2023-04-08T13:53:57;17.70;74.00
17405;DHT22;8820;54.604;18.226;2023-04-08T13:56:25;17.60;73.30
17405;DHT22;8820;54.604;18.226;2023-04-08T13:58:54;17.50;74.20
17405;DHT22;8820;54.604;18.226;2023-04-08T14:01:23;17.40;74.90
17405;DHT22;8820;54.604;18.226;2023-04-08T14:03:52;17.40;73.80
17405;DHT22;8820;54.604;18.226;2023-04-08T14:06:20;17.30;75.10
17405;DHT22;8820;54.604;18.226;2023-04-08T14:08:49;17.30;74.30
17405;DHT22;8820;54.604;18.226;2023-04-08T14:11:19;17.10;73.80
17405;DHT22;8820;54.604;18.226;2023-04-08T14:13:47;17.10;76.20
17405;DHT22;8820;54.604;18.226;2023-04-08T14:16:16;17.10;74.70
17405;DHT22;8820;54.604;18.226;2023-04-08T14:18:44;17.10;76.30
17405;DHT22;8820;54.604;18.226;2023-04-08T14:21:13;17.10;75.00
17405;DHT22;8820;54.604;18.226;2023-04-08T14:23:44;17.00;74.90
17405;DHT22;8820;54.604;18.226;2023-04-08T14:26:12;16.90;74.60
17405;DHT22;8820;54.604;18.226;2023-04-08T14:28:43;16.90;75.40
17405;DHT22;8820;54.604;18.226;2023-04-08T14:31:11;16.90;74.60
17405;DHT22;8820;54.604;18.226;2023-04-08T14:33:40;16.70;75.50
17405;DHT22;8820;54.604;18.226;2023-04-08T14:36:09;16.70;75.30
17405;DHT22;8820;54.604;18.226;2023-04-08T14:38:38;16.60;75.40
17405;DHT22;8820;54.604;18.226;2023-04-08T14:41:06;16.50;76.40
17405;DHT22;8820;54.604;18.226;2023-04-08T14:43:34;16.60;76.50
17405;DHT22;8820;54.604;18.226;2023-04-08T14:46:04;16.50;76.50
17405;DHT22;8820;54.604;18.226;2023-04-08T14:48:33;16.50;76.00
17405;DHT22;8820;54.604;18.226;2023-04-08T14:51:01;16.50;77.50
17405;DHT22;8820;54.604;18.226;2023-04-08T14:53:30;16.50;76.00
17405;DHT22;8820;54.604;18.226;2023-04-08T14:55:59;16.50;76.20
17405;DHT22;8820;54.604;18.226;2023-04-08T14:58:28;16.50;76.50
17405;DHT22;8820;54.604;18.226;2023-04-08T15:00:56;16.50;75.30
17405;DHT22;8820;54.604;18.226;2023-04-08T15:03:26;16.40;75.00
17405;DHT22;8820;54.604;18.226;2023-04-08T15:05:55;16.30;74.60
17405;DHT22;8820;54.604;18.226;2023-04-08T15:08:23;16.40;76.20
17405;DHT22;8820;54.604;18.226;2023-04-08T15:10:52;16.30;75.20
17405;DHT22;8820;54.604;18.226;2023-04-08T15:13:20;16.30;75.60
17405;DHT22;8820;54.604;18.226;2023-04-08T15:15:49;16.30;75.70
17405;DHT22;8820;54.604;18.226;2023-04-08T15:18:17;16.40;75.80
17405;DHT22;8820;54.604;18.226;2023-04-08T15:20:47;16.30;74.60
17405;DHT22;8820;54.604;18.226;2023-04-08T15:23:16;16.30;74.60
17405;DHT22;8820;54.604;18.226;2023-04-08T15:25:44;16.20;74.90
17405;DHT22;8820;54.604;18.226;2023-04-08T15:28:14;16.20;74.40
17405;DHT22;8820;54.604;18.226;2023-04-08T15:30:42;16.10;75.10
17405;DHT22;8820;54.604;18.226;2023-04-08T15:33:11;16.10;75.20
17405;DHT22;8820;54.604;18.226;2023-04-08T15:35:39;16.00;74.60
17405;DHT22;8820;54.604;18.226;2023-04-08T15:38:09;16.00;75.50
17405;DHT22;8820;54.604;18.226;2023-04-08T15:40:38;16.00;75.60
17405;DHT22;8820;54.604;18.226;2023-04-08T15:43:06;16.00;76.00
17405;DHT22;8820;54.604;18.226;2023-04-08T15:45:41;16.00;77.00
17405;DHT22;8820;54.604;18.226;2023-04-08T15:48:10;16.10;77.10